createdAt,value
2023-05-01T00:00:05.340Z,38.71
2023-05-01T00:01:03.205Z,41.26
2023-05-01T00:02:03.214Z,39.09
2023-05-01T00:03:03.417Z,40.75
2023-05-01T00:04:03.329Z,41.01
2023-05-01T00:05:03.333Z,39.49
2023-05-01T00:06:03.296Z,38.48
2023-05-01T00:07:03.279Z,41.89
2023-05-01T00:08:03.282Z,40.78
2023-05-01T00:09:03.312Z,41.16
2023-05-01T00:10:03.385Z,38.49
2023-05-01T00:11:03.363Z,38.85
2023-05-01T00:12:03.353Z,42.78
2023-05-01T00:13:03.389Z,39.43
2023-05-01T00:14:03.438Z,39.50
2023-05-01T00:15:03.479Z,37.01
2023-05-01T00:16:03.525Z,42.16
2023-05-01T00:17:03.499Z,38.35
2023-05-01T00:18:03.691Z,41.11
2023-05-01T00:19:03.600Z,38.80
2023-05-01T00:20:03.627Z,40.46
2023-05-01T00:21:03.634Z,40.31
2023-05-01T00:22:03.707Z,38.28
2023-05-01T00:23:03.720Z,40.93
2023-05-01T00:24:03.736Z,41.51
2023-05-01T00:25:03.761Z,40.13
2023-05-01T00:26:03.774Z,41.24
2023-05-01T00:27:03.745Z,39.54
2023-05-01T00:28:03.751Z,40.88
2023-05-01T00:29:03.729Z,37.97
2023-05-01T00:30:03.727Z,40.68
2023-05-01T00:31:03.737Z,41.41
2023-05-01T00:32:03.842Z,38.02
2023-05-01T00:33:03.885Z,40.34
2023-05-01T00:34:03.767Z,39.34
2023-05-01T00:35:03.809Z,37.60
2023-05-01T00:36:03.772Z,38.48
2023-05-01T00:37:03.795Z,39.77
2023-05-01T00:38:03.770Z,38.79
2023-05-01T00:39:03.792Z,44.54
2023-05-01T00:40:03.786Z,41.57
2023-05-01T00:41:03.809Z,42.58
2023-05-01T00:42:03.783Z,39.78
2023-05-01T00:43:03.793Z,39.07
2023-05-01T00:44:03.786Z,37.67
2023-05-01T00:45:03.796Z,39.66
2023-05-01T00:46:03.822Z,42.68
2023-05-01T00:47:03.808Z,40.65
2023-05-01T00:48:04.760Z,37.65
2023-05-01T00:49:03.766Z,43.12
2023-05-01T00:50:03.867Z,42.11
2023-05-01T00:51:03.778Z,39.45
2023-05-01T00:52:03.786Z,38.49
2023-05-01T00:53:03.770Z,39.66
2023-05-01T00:54:03.826Z,39.93
2023-05-01T00:55:03.864Z,39.77
2023-05-01T00:56:03.807Z,39.12
2023-05-01T00:57:03.857Z,38.31
2023-05-01T00:58:03.858Z,41.80
2023-05-01T00:59:03.882Z,39.61
2023-05-01T01:00:03.872Z,41.98
2023-05-01T01:01:03.964Z,36.67
2023-05-01T01:02:03.942Z,41.62
2023-05-01T01:03:04.009Z,41.51
2023-05-01T01:04:04.020Z,40.28
2023-05-01T01:05:04.034Z,38.42
2023-05-01T01:06:04.054Z,37.27
2023-05-01T01:07:04.053Z,39.98
2023-05-01T01:08:04.070Z,41.08
2023-05-01T01:09:04.071Z,39.70
2023-05-01T01:10:04.078Z,42.86
2023-05-01T01:11:04.111Z,37.98
2023-05-01T01:12:04.142Z,42.57
2023-05-01T01:13:04.143Z,37.68
2023-05-01T01:14:04.149Z,39.07
2023-05-01T01:15:04.129Z,36.93
2023-05-01T01:16:04.137Z,37.80
2023-05-01T01:17:04.413Z,41.76
2023-05-01T01:18:04.151Z,39.72
2023-05-01T01:19:04.124Z,41.03
2023-05-01T01:20:04.140Z,39.76
2023-05-01T01:21:04.146Z,43.05
2023-05-01T01:22:04.129Z,42.38
2023-05-01T01:23:04.150Z,36.77
2023-05-01T01:24:04.125Z,38.12
2023-05-01T01:25:04.128Z,37.27
2023-05-01T01:26:04.162Z,42.72
2023-05-01T01:27:04.132Z,42.02
2023-05-01T01:28:04.135Z,38.79
2023-05-01T01:29:04.162Z,44.81
2023-05-01T01:30:04.175Z,42.79
2023-05-01T01:31:04.239Z,41.84
2023-05-01T01:32:04.213Z,38.65
2023-05-01T01:33:04.318Z,38.39
2023-05-01T01:34:04.290Z,42.06
2023-05-01T01:35:04.270Z,39.31
2023-05-01T01:36:04.275Z,39.08
2023-05-01T01:37:04.278Z,37.56
2023-05-01T01:38:04.294Z,40.80
2023-05-01T01:39:04.292Z,39.46
2023-05-01T01:40:04.302Z,40.54
2023-05-01T01:41:04.329Z,40.37
2023-05-01T01:42:04.369Z,37.45
2023-05-01T01:43:04.337Z,39.84
2023-05-01T01:44:04.365Z,40.58
2023-05-01T01:45:04.384Z,39.35
2023-05-01T01:46:04.430Z,38.93
2023-05-01T01:47:04.391Z,42.60
2023-05-01T01:48:04.515Z,38.83
2023-05-01T01:49:04.389Z,40.89
2023-05-01T01:50:04.386Z,39.09
2023-05-01T01:51:04.394Z,39.94
2023-05-01T01:52:04.382Z,40.65
2023-05-01T01:53:04.391Z,42.50
2023-05-01T01:54:04.411Z,38.93
2023-05-01T01:55:04.401Z,41.48
2023-05-01T01:56:04.424Z,42.12
2023-05-01T01:57:04.429Z,40.10
2023-05-01T01:58:04.405Z,38.60
2023-05-01T01:59:04.451Z,37.17
2023-05-01T02:00:04.436Z,41.38
2023-05-01T02:01:04.440Z,38.18
2023-05-01T02:02:04.488Z,37.84
2023-05-01T02:03:04.515Z,36.91
2023-05-01T02:04:04.473Z,39.55
2023-05-01T02:05:04.431Z,37.92
2023-05-01T02:06:04.497Z,39.02
2023-05-01T02:07:04.468Z,39.69
2023-05-01T02:08:04.463Z,39.32
2023-05-01T02:09:04.453Z,38.21
2023-05-01T02:10:04.480Z,37.36
2023-05-01T02:11:04.508Z,40.41
2023-05-01T02:12:04.525Z,39.39
2023-05-01T02:13:04.509Z,38.81
2023-05-01T02:14:04.485Z,37.65
2023-05-01T02:15:04.497Z,39.60
2023-05-01T02:16:04.573Z,41.58
2023-05-01T02:17:04.531Z,38.64
2023-05-01T02:18:04.569Z,39.37
2023-05-01T02:19:04.519Z,38.77
2023-05-01T02:20:04.525Z,39.27
2023-05-01T02:21:04.629Z,42.50
2023-05-01T02:22:04.577Z,40.01
2023-05-01T02:23:04.545Z,39.53
2023-05-01T02:24:04.552Z,34.14
2023-05-01T02:25:04.546Z,36.48
2023-05-01T02:26:04.549Z,37.10
2023-05-01T02:27:04.618Z,38.24
2023-05-01T02:28:04.560Z,39.48
2023-05-01T02:29:04.546Z,40.67
2023-05-01T02:30:04.582Z,39.21
2023-05-01T02:31:04.583Z,41.26
2023-05-01T02:32:04.673Z,38.43
2023-05-01T02:33:04.608Z,40.11
2023-05-01T02:34:04.564Z,37.27
2023-05-01T02:35:04.559Z,41.31
2023-05-01T02:36:04.577Z,38.57
2023-05-01T02:37:04.745Z,40.22
2023-05-01T02:38:04.579Z,39.83
2023-05-01T02:39:04.582Z,42.00
2023-05-01T02:40:04.606Z,38.55
2023-05-01T02:41:04.597Z,38.11
2023-05-01T02:42:04.582Z,39.22
2023-05-01T02:43:04.588Z,41.14
2023-05-01T02:44:04.578Z,37.76
2023-05-01T02:45:04.622Z,39.84
2023-05-01T02:46:04.730Z,40.66
2023-05-01T02:47:04.605Z,40.04
2023-05-01T02:48:04.646Z,36.83
2023-05-01T02:49:04.611Z,37.21
2023-05-01T02:50:04.609Z,39.47
2023-05-01T02:51:04.653Z,40.48
2023-05-01T02:52:04.637Z,37.21
2023-05-01T02:53:04.701Z,37.89
2023-05-01T02:54:04.635Z,40.81
2023-05-01T02:55:04.629Z,38.09
2023-05-01T02:56:04.666Z,40.04
2023-05-01T02:57:04.663Z,38.47
2023-05-01T02:58:04.674Z,41.48
2023-05-01T02:59:04.680Z,37.84
2023-05-01T03:00:04.679Z,41.14
2023-05-01T03:01:04.713Z,39.62
2023-05-01T03:02:04.676Z,39.26
2023-05-01T03:03:04.737Z,36.01
2023-05-01T03:04:04.765Z,37.20
2023-05-01T03:05:04.711Z,36.69
2023-05-01T03:06:04.773Z,37.23
2023-05-01T03:07:04.714Z,41.18
2023-05-01T03:08:04.725Z,40.60
2023-05-01T03:09:04.737Z,35.20
2023-05-01T03:10:04.753Z,37.00
2023-05-01T03:11:04.759Z,37.00
2023-05-01T03:12:04.731Z,39.00
2023-05-01T03:13:04.736Z,37.67
2023-05-01T03:14:04.736Z,37.67
2023-05-01T03:15:04.778Z,38.42
2023-05-01T03:16:04.880Z,38.24
2023-05-01T03:17:04.737Z,41.12
2023-05-01T03:18:04.856Z,36.17
2023-05-01T03:19:04.744Z,35.03
2023-05-01T03:20:04.776Z,38.45
2023-05-01T03:21:04.740Z,36.75
2023-05-01T03:22:04.778Z,38.88
2023-05-01T03:23:04.783Z,38.97
2023-05-01T03:24:04.771Z,36.52
2023-05-01T03:25:04.810Z,39.21
2023-05-01T03:26:04.789Z,36.67
2023-05-01T03:27:04.796Z,38.41
2023-05-01T03:28:04.800Z,34.16
2023-05-01T03:29:04.821Z,35.74
2023-05-01T03:30:04.839Z,37.44
2023-05-01T03:31:04.847Z,42.25
2023-05-01T03:32:04.858Z,35.63
2023-05-01T03:33:04.891Z,40.51
2023-05-01T03:34:04.837Z,41.01
2023-05-01T03:35:04.845Z,39.41
2023-05-01T03:36:04.950Z,38.25
2023-05-01T03:37:04.845Z,39.13
2023-05-01T03:38:04.839Z,40.85
2023-05-01T03:39:04.867Z,39.84
2023-05-01T03:40:04.916Z,35.85
2023-05-01T03:41:04.865Z,40.10
2023-05-01T03:42:04.932Z,39.15
2023-05-01T03:43:04.898Z,38.63
2023-05-01T03:44:04.908Z,39.66
2023-05-01T03:45:04.915Z,40.14
2023-05-01T03:46:04.961Z,37.23
2023-05-01T03:47:04.991Z,38.31
2023-05-01T03:48:04.970Z,34.69
2023-05-01T03:49:04.983Z,35.98
2023-05-01T03:50:04.988Z,39.63
2023-05-01T03:51:04.997Z,34.54
2023-05-01T03:52:05.008Z,38.45
2023-05-01T03:53:05.028Z,38.56
2023-05-01T03:54:05.039Z,37.73
2023-05-01T03:55:05.048Z,42.31
2023-05-01T03:56:05.089Z,36.95
2023-05-01T03:57:05.105Z,38.63
2023-05-01T03:58:05.079Z,35.43
2023-05-01T03:59:05.102Z,38.43
2023-05-01T04:00:05.107Z,39.80
2023-05-01T04:01:05.114Z,38.27
2023-05-01T04:02:05.203Z,40.09
2023-05-01T04:03:05.342Z,38.84
2023-05-01T04:04:05.202Z,34.31
2023-05-01T04:05:05.167Z,37.79
2023-05-01T04:06:05.285Z,37.93
2023-05-01T04:07:05.147Z,36.43
2023-05-01T04:08:05.187Z,37.50
2023-05-01T04:09:05.184Z,39.34
2023-05-01T04:10:05.166Z,40.45
2023-05-01T04:11:05.225Z,37.74
2023-05-01T04:12:05.186Z,36.82
2023-05-01T04:13:05.200Z,36.77
2023-05-01T04:14:05.209Z,38.34
2023-05-01T04:15:05.235Z,36.79
2023-05-01T04:16:05.242Z,35.64
2023-05-01T04:17:05.209Z,37.37
2023-05-01T04:18:05.306Z,37.42
2023-05-01T04:19:05.276Z,41.12
2023-05-01T04:20:05.295Z,38.12
2023-05-01T04:21:05.315Z,38.48
2023-05-01T04:22:05.309Z,41.65
2023-05-01T04:23:05.327Z,36.73
2023-05-01T04:24:05.325Z,37.93
2023-05-01T04:25:05.334Z,38.50
2023-05-01T04:26:05.384Z,39.69
2023-05-01T04:27:05.380Z,38.45
2023-05-01T04:28:05.381Z,35.53
2023-05-01T04:29:05.472Z,36.09
2023-05-01T04:30:05.396Z,35.79
2023-05-01T04:31:05.466Z,37.54
2023-05-01T04:32:05.552Z,35.16
2023-05-01T04:33:05.428Z,38.69
2023-05-01T04:34:05.404Z,39.57
2023-05-01T04:35:05.401Z,35.61
2023-05-01T04:36:05.423Z,34.89
2023-05-01T04:37:05.416Z,35.95
2023-05-01T04:38:05.402Z,39.30
2023-05-01T04:39:05.386Z,36.87
2023-05-01T04:40:05.400Z,34.80
2023-05-01T04:41:05.404Z,36.57
2023-05-01T04:42:05.436Z,32.65
2023-05-01T04:43:05.406Z,34.35
2023-05-01T04:44:05.443Z,36.32
2023-05-01T04:45:05.441Z,40.15
2023-05-01T04:46:05.534Z,31.69
2023-05-01T04:47:05.574Z,34.61
2023-05-01T04:48:05.520Z,38.62
2023-05-01T04:49:05.559Z,35.83
2023-05-01T04:50:05.528Z,33.95
2023-05-01T04:51:05.550Z,36.40
2023-05-01T04:52:05.534Z,37.57
2023-05-01T04:53:05.567Z,32.98
2023-05-01T04:54:05.640Z,35.73
2023-05-01T04:55:05.596Z,37.36
2023-05-01T04:56:05.605Z,36.31
2023-05-01T04:57:05.641Z,34.25
2023-05-01T04:58:05.615Z,36.80
2023-05-01T04:59:05.619Z,36.03
2023-05-01T05:00:05.603Z,32.14
2023-05-01T05:01:05.657Z,32.44
2023-05-01T05:02:05.808Z,35.88
2023-05-01T05:03:05.715Z,32.13
2023-05-01T05:04:05.833Z,34.52
2023-05-01T05:05:05.643Z,33.17
2023-05-01T05:06:05.708Z,34.41
2023-05-01T05:07:05.634Z,35.94
2023-05-01T05:08:05.656Z,36.13
2023-05-01T05:09:05.629Z,34.94
2023-05-01T05:10:05.633Z,33.59
2023-05-01T05:11:05.634Z,36.81
2023-05-01T05:12:05.651Z,32.70
2023-05-01T05:13:05.649Z,35.54
2023-05-01T05:14:05.656Z,35.17
2023-05-01T05:15:05.675Z,36.08
2023-05-01T05:16:05.740Z,29.83
2023-05-01T05:17:05.670Z,34.52
2023-05-01T05:18:05.736Z,34.11
2023-05-01T05:19:05.677Z,32.74
2023-05-01T05:20:05.680Z,34.58
2023-05-01T05:21:05.697Z,33.20
2023-05-01T05:22:05.695Z,34.51
2023-05-01T05:23:06.428Z,33.95
2023-05-01T05:24:05.711Z,31.32
2023-05-01T05:25:05.692Z,33.94
2023-05-01T05:26:05.743Z,35.40
2023-05-01T05:27:05.726Z,32.74
2023-05-01T05:28:05.736Z,35.25
2023-05-01T05:29:05.745Z,36.55
2023-05-01T05:30:05.759Z,35.40
2023-05-01T05:31:05.767Z,36.03
2023-05-01T05:32:05.876Z,32.79
2023-05-01T05:33:05.881Z,34.76
2023-05-01T05:34:05.793Z,33.88
2023-05-01T05:35:05.840Z,32.07
2023-05-01T05:36:05.834Z,35.29
2023-05-01T05:37:05.854Z,32.18
2023-05-01T05:38:05.874Z,35.11
2023-05-01T05:39:05.880Z,37.24
2023-05-01T05:40:05.854Z,35.36
2023-05-01T05:41:05.872Z,30.72
2023-05-01T05:42:05.910Z,35.23
2023-05-01T05:43:05.889Z,31.97
2023-05-01T05:44:05.934Z,32.20
2023-05-01T05:45:05.896Z,34.27
2023-05-01T05:46:06.007Z,31.82
2023-05-01T05:47:06.369Z,37.38
2023-05-01T05:48:05.992Z,30.47
2023-05-01T05:49:05.971Z,32.42
2023-05-01T05:50:05.993Z,34.69
2023-05-01T05:51:05.960Z,30.08
2023-05-01T05:52:05.991Z,31.02
2023-05-01T05:53:05.987Z,30.96
2023-05-01T05:54:06.015Z,32.85
2023-05-01T05:55:05.986Z,31.52
2023-05-01T05:56:06.003Z,33.22
2023-05-01T05:57:06.028Z,33.11
2023-05-01T05:58:06.038Z,32.48
2023-05-01T05:59:06.017Z,29.14
2023-05-01T06:00:06.055Z,32.29
2023-05-01T06:01:06.049Z,27.75
2023-05-01T06:02:06.113Z,32.65
2023-05-01T06:03:06.135Z,32.88
2023-05-01T06:04:06.082Z,31.89
2023-05-01T06:05:06.182Z,32.91
2023-05-01T06:06:06.357Z,29.32
2023-05-01T06:07:06.137Z,34.37
2023-05-01T06:08:06.154Z,31.63
2023-05-01T06:09:06.138Z,31.00
2023-05-01T06:10:06.158Z,31.18
2023-05-01T06:11:06.186Z,31.57
2023-05-01T06:12:06.185Z,29.48
2023-05-01T06:13:13.625Z,31.60
2023-05-01T06:14:07.168Z,31.89
2023-05-01T06:15:06.235Z,32.14
2023-05-01T06:16:06.186Z,31.61
2023-05-01T06:17:06.207Z,31.81
2023-05-01T06:18:06.196Z,30.66
2023-05-01T06:19:06.126Z,32.94
2023-05-01T06:20:06.113Z,32.78
2023-05-01T06:21:06.121Z,31.66
2023-05-01T06:22:06.129Z,28.40
2023-05-01T06:23:06.118Z,26.40
2023-05-01T06:24:06.123Z,30.94
2023-05-01T06:25:06.086Z,28.85
2023-05-01T06:26:06.130Z,26.50
2023-05-01T06:27:06.062Z,30.98
2023-05-01T06:28:06.059Z,27.65
2023-05-01T06:29:06.081Z,30.37
2023-05-01T06:30:06.039Z,30.35
2023-05-01T06:31:06.068Z,28.22
2023-05-01T06:32:06.075Z,27.65
2023-05-01T06:33:06.111Z,28.84
2023-05-01T06:34:06.009Z,28.23
2023-05-01T06:35:06.009Z,31.03
2023-05-01T06:36:06.012Z,26.09
2023-05-01T06:37:05.995Z,26.87
2023-05-01T06:38:05.996Z,33.01
2023-05-01T06:39:05.990Z,29.04
2023-05-01T06:40:05.996Z,25.14
2023-05-01T06:41:05.981Z,26.26
2023-05-01T06:42:05.981Z,26.21
2023-05-01T06:43:05.972Z,30.06
2023-05-01T06:44:05.947Z,27.24
2023-05-01T06:45:05.966Z,28.78
2023-05-01T06:46:05.944Z,31.85
2023-05-01T06:47:06.055Z,27.84
2023-05-01T06:48:06.022Z,26.65
2023-05-01T06:49:05.906Z,26.07
2023-05-01T06:50:06.108Z,25.52
2023-05-01T06:51:05.891Z,29.10
2023-05-01T06:52:05.921Z,26.93
2023-05-01T06:53:05.989Z,27.70
2023-05-01T06:54:05.871Z,28.18
2023-05-01T06:55:05.868Z,25.00
2023-05-01T06:56:05.890Z,33.13
2023-05-01T06:57:05.859Z,28.90
2023-05-01T06:58:15.930Z,27.25
2023-05-01T06:59:06.849Z,27.60
2023-05-01T07:00:05.836Z,28.56
2023-05-01T07:01:05.863Z,28.52
2023-05-01T07:02:05.884Z,29.95
2023-05-01T07:03:05.849Z,32.76
2023-05-01T07:04:05.848Z,27.79
2023-05-01T07:05:05.806Z,31.49
2023-05-01T07:06:05.845Z,30.64
2023-05-01T07:07:05.790Z,28.51
2023-05-01T07:08:05.816Z,26.37
2023-05-01T07:09:05.787Z,27.83
2023-05-01T07:10:05.772Z,28.39
2023-05-01T07:11:05.773Z,30.91
2023-05-01T07:12:05.824Z,34.29
2023-05-01T07:13:05.767Z,30.30
2023-05-01T07:14:05.744Z,28.00
2023-05-01T07:15:05.730Z,30.44
2023-05-01T07:16:05.759Z,30.58
2023-05-01T07:17:05.730Z,28.57
2023-05-01T07:18:05.810Z,27.04
2023-05-01T07:19:05.701Z,26.98
2023-05-01T07:20:05.705Z,29.23
2023-05-01T07:21:05.703Z,28.08
2023-05-01T07:22:05.699Z,27.83
2023-05-01T07:23:07.409Z,31.79
2023-05-01T07:24:05.667Z,30.26
2023-05-01T07:25:05.681Z,30.72
2023-05-01T07:26:05.740Z,29.89
2023-05-01T07:27:05.788Z,28.23
2023-05-01T07:28:05.787Z,26.75
2023-05-01T07:29:05.812Z,31.09
2023-05-01T07:30:05.824Z,29.78
2023-05-01T07:31:05.889Z,27.90
2023-05-01T07:32:05.965Z,26.28
2023-05-01T07:33:06.016Z,26.84
2023-05-01T07:34:05.964Z,26.93
2023-05-01T07:35:06.015Z,26.84
2023-05-01T07:36:06.033Z,27.13
2023-05-01T07:37:06.074Z,26.79
2023-05-01T07:38:06.110Z,28.14
2023-05-01T07:39:06.107Z,29.72
2023-05-01T07:40:06.107Z,28.78
2023-05-01T07:41:06.153Z,28.88
2023-05-01T07:42:06.214Z,27.99
2023-05-01T07:43:06.181Z,30.54
2023-05-01T07:44:06.236Z,32.11
2023-05-01T07:45:06.252Z,29.70
2023-05-01T07:46:06.323Z,27.40
2023-05-01T07:47:06.388Z,26.58
2023-05-01T07:48:06.368Z,28.70
2023-05-01T07:49:06.390Z,28.72
2023-05-01T07:50:06.391Z,30.40
2023-05-01T07:51:06.429Z,28.67
2023-05-01T07:52:06.525Z,30.02
2023-05-01T07:53:06.513Z,26.44
2023-05-01T07:54:06.478Z,29.75
2023-05-01T07:55:06.532Z,29.33
2023-05-01T07:56:06.535Z,26.45
2023-05-01T07:57:06.720Z,26.06
2023-05-01T07:58:06.605Z,28.42
2023-05-01T07:59:06.630Z,28.53
2023-05-01T08:00:06.620Z,28.01
2023-05-01T08:01:06.655Z,31.48
2023-05-01T08:02:06.699Z,27.45
2023-05-01T08:03:06.920Z,27.58
2023-05-01T08:04:06.850Z,32.19
2023-05-01T08:05:06.813Z,29.53
2023-05-01T08:06:07.045Z,30.50
2023-05-01T08:07:06.900Z,28.53
2023-05-01T08:08:06.988Z,29.54
2023-05-01T08:09:06.982Z,27.29
2023-05-01T08:10:06.982Z,29.72
2023-05-01T08:11:06.973Z,27.28
2023-05-01T08:12:07.039Z,27.00
2023-05-01T08:13:06.976Z,27.08
2023-05-01T08:14:06.978Z,28.20
2023-05-01T08:15:06.967Z,27.08
2023-05-01T08:16:07.020Z,27.60
2023-05-01T08:17:06.981Z,27.57
2023-05-01T08:18:07.055Z,27.14
2023-05-01T08:19:06.993Z,27.40
2023-05-01T08:20:06.970Z,26.81
2023-05-01T08:21:06.967Z,28.90
2023-05-01T08:22:06.949Z,27.26
2023-05-01T08:23:07.000Z,25.19
2023-05-01T08:24:06.994Z,29.59
2023-05-01T08:25:06.967Z,26.18
2023-05-01T08:26:06.987Z,30.22
2023-05-01T08:27:07.023Z,28.82
2023-05-01T08:28:06.999Z,27.87
2023-05-01T08:29:07.013Z,29.61
2023-05-01T08:30:07.007Z,29.06
2023-05-01T08:31:07.039Z,29.08
2023-05-01T08:32:07.010Z,30.95
2023-05-01T08:33:07.080Z,28.33
2023-05-01T08:34:07.040Z,29.12
2023-05-01T08:35:07.048Z,30.96
2023-05-01T08:36:07.065Z,28.25
2023-05-01T08:37:07.121Z,30.43
2023-05-01T08:38:07.143Z,25.41
2023-05-01T08:39:07.158Z,27.53
2023-05-01T08:40:07.234Z,29.17
2023-05-01T08:41:07.292Z,26.49
2023-05-01T08:42:07.310Z,27.89
2023-05-01T08:43:07.952Z,30.87
2023-05-01T08:44:07.444Z,27.41
2023-05-01T08:45:07.472Z,31.50
2023-05-01T08:46:07.707Z,31.34
2023-05-01T08:47:07.671Z,25.95
2023-05-01T08:48:07.681Z,29.46
2023-05-01T08:49:07.614Z,27.00
2023-05-01T08:50:07.674Z,29.18
2023-05-01T08:51:07.688Z,29.12
2023-05-01T08:52:07.745Z,28.93
2023-05-01T08:53:07.786Z,27.03
2023-05-01T08:54:07.784Z,29.19
2023-05-01T08:55:07.822Z,27.41
2023-05-01T08:56:07.885Z,29.88
2023-05-01T08:57:10.246Z,29.50
2023-05-01T08:58:08.168Z,28.82
2023-05-01T08:59:08.181Z,28.93
2023-05-01T09:00:08.213Z,31.43
2023-05-01T09:01:08.271Z,25.44
2023-05-01T09:02:08.391Z,28.94
2023-05-01T09:03:08.452Z,28.54
2023-05-01T09:04:08.388Z,30.45
2023-05-01T09:05:08.345Z,27.82
2023-05-01T09:06:08.456Z,26.08
2023-05-01T09:07:08.384Z,30.55
2023-05-01T09:08:08.437Z,26.86
2023-05-01T09:09:08.487Z,29.07
2023-05-01T09:10:08.494Z,28.07
2023-05-01T09:11:08.565Z,28.40
2023-05-01T09:12:08.594Z,27.69
2023-05-01T09:13:08.652Z,28.35
2023-05-01T09:14:08.692Z,29.69
2023-05-01T09:15:08.757Z,29.99
2023-05-01T09:16:08.819Z,27.35
2023-05-01T09:17:08.804Z,29.21
2023-05-01T09:18:08.888Z,26.95
2023-05-01T09:19:08.880Z,27.07
2023-05-01T09:20:08.943Z,31.64
2023-05-01T09:21:08.999Z,27.85
2023-05-01T09:22:09.025Z,26.36
2023-05-01T09:23:09.101Z,27.67
2023-05-01T09:24:09.167Z,26.44
2023-05-01T09:25:09.207Z,32.30
2023-05-01T09:26:09.935Z,30.37
2023-05-01T09:27:09.195Z,27.43
2023-05-01T09:28:09.240Z,31.17
2023-05-01T09:29:09.273Z,28.54
2023-05-01T09:30:09.275Z,30.91
2023-05-01T09:31:09.308Z,28.60
2023-05-01T09:32:09.425Z,32.05
2023-05-01T09:33:09.420Z,30.37
2023-05-01T09:34:09.456Z,32.19
2023-05-01T09:35:09.524Z,28.35
2023-05-01T09:36:09.536Z,27.86
2023-05-01T09:37:09.567Z,32.39
2023-05-01T09:38:09.653Z,27.11
2023-05-01T09:39:09.675Z,25.88
2023-05-01T09:40:09.730Z,26.44
2023-05-01T09:41:09.777Z,28.74
2023-05-01T09:42:09.862Z,29.77
2023-05-01T09:43:11.211Z,27.92
2023-05-01T09:44:09.947Z,28.53
2023-05-01T09:45:09.975Z,25.90
2023-05-01T09:46:10.085Z,27.98
2023-05-01T09:47:10.076Z,28.36
2023-05-01T09:48:10.148Z,27.39
2023-05-01T09:49:10.162Z,27.52
2023-05-01T09:50:10.194Z,31.47
2023-05-01T09:51:10.214Z,29.95
2023-05-01T09:52:10.259Z,30.61
2023-05-01T09:53:10.275Z,32.71
2023-05-01T09:54:10.297Z,29.11
2023-05-01T09:55:10.344Z,30.71
2023-05-01T09:56:10.348Z,32.63
2023-05-01T09:57:10.412Z,29.60
2023-05-01T09:58:10.439Z,32.31
2023-05-01T09:59:10.474Z,29.42
2023-05-01T10:00:10.533Z,31.59
2023-05-01T10:01:10.543Z,31.08
2023-05-01T10:02:10.602Z,29.56
2023-05-01T10:03:10.637Z,26.55
2023-05-01T10:04:10.681Z,29.66
2023-05-01T10:05:10.670Z,30.99
2023-05-01T10:06:10.713Z,30.24
2023-05-01T10:07:10.700Z,29.28
2023-05-01T10:08:10.729Z,28.99
2023-05-01T10:09:10.749Z,29.52
2023-05-01T10:10:10.779Z,30.65
2023-05-01T10:11:10.786Z,28.59
2023-05-01T10:12:10.789Z,28.96
2023-05-01T10:13:10.867Z,29.92
2023-05-01T10:14:10.858Z,30.26
2023-05-01T10:15:23.847Z,28.46
2023-05-01T10:16:11.881Z,28.78
2023-05-01T10:17:11.084Z,29.21
2023-05-01T10:18:10.983Z,31.02
2023-05-01T10:19:10.859Z,31.30
2023-05-01T10:20:10.851Z,31.98
2023-05-01T10:21:10.864Z,29.17
2023-05-01T10:22:10.837Z,30.73
2023-05-01T10:23:10.873Z,30.57
2023-05-01T10:24:10.834Z,30.93
2023-05-01T10:25:10.805Z,31.52
2023-05-01T10:26:10.831Z,31.12
2023-05-01T10:27:10.844Z,28.62
2023-05-01T10:28:10.913Z,29.19
2023-05-01T10:29:10.918Z,31.39
2023-05-01T10:30:10.935Z,31.16
2023-05-01T10:31:11.051Z,27.57
2023-05-01T10:32:10.995Z,31.56
2023-05-01T10:33:11.049Z,30.12
2023-05-01T10:34:11.103Z,30.22
2023-05-01T10:35:11.104Z,31.53
2023-05-01T10:36:11.167Z,30.33
2023-05-01T10:37:11.251Z,27.76
2023-05-01T10:38:11.216Z,28.77
2023-05-01T10:39:11.240Z,33.04
2023-05-01T10:40:11.294Z,28.41
2023-05-01T10:41:11.297Z,29.35
2023-05-01T10:42:11.553Z,29.29
2023-05-01T10:43:11.334Z,28.96
2023-05-01T10:44:11.372Z,31.78
2023-05-01T10:45:11.413Z,28.63
2023-05-01T10:46:11.506Z,28.33
2023-05-01T10:47:11.431Z,29.47
2023-05-01T10:48:11.492Z,27.26
2023-05-01T10:49:11.473Z,28.91
2023-05-01T10:50:11.525Z,28.97
2023-05-01T10:51:11.574Z,28.25
2023-05-01T10:52:11.561Z,28.34
2023-05-01T10:53:11.662Z,30.00
2023-05-01T10:54:11.629Z,30.00
2023-05-01T10:55:11.651Z,29.03
2023-05-01T10:56:11.647Z,30.37
2023-05-01T10:57:11.684Z,28.72
2023-05-01T10:58:11.720Z,31.94
2023-05-01T10:59:11.777Z,32.03
2023-05-01T11:00:11.759Z,29.41
2023-05-01T11:01:11.788Z,32.47
2023-05-01T11:02:11.855Z,30.71
2023-05-01T11:03:11.906Z,33.73
2023-05-01T11:04:11.865Z,25.85
2023-05-01T11:05:11.930Z,30.93
2023-05-01T11:06:12.017Z,31.75
2023-05-01T11:07:12.029Z,34.64
2023-05-01T11:08:12.465Z,41.22
2023-05-01T11:09:12.057Z,39.23
2023-05-01T11:10:12.149Z,41.02
2023-05-01T11:11:12.136Z,36.10
2023-05-01T11:12:12.153Z,32.46
2023-05-01T11:13:12.187Z,40.46
2023-05-01T11:14:12.190Z,54.94
2023-05-01T11:15:12.233Z,42.40
2023-05-01T11:16:12.294Z,47.36
2023-05-01T11:17:12.324Z,58.37
2023-05-01T11:18:12.415Z,70.13
2023-05-01T11:19:12.335Z,80.50
2023-05-01T11:20:12.387Z,79.05
2023-05-01T11:21:12.431Z,78.27
2023-05-01T11:22:12.490Z,81.32
2023-05-01T11:23:12.556Z,85.31
2023-05-01T11:24:12.645Z,89.59
2023-05-01T11:25:12.679Z,88.87
2023-05-01T11:26:12.770Z,92.69
2023-05-01T11:27:12.823Z,97.82
2023-05-01T11:28:12.893Z,97.84
2023-05-01T11:29:12.952Z,101.95
2023-05-01T11:30:13.107Z,99.14
2023-05-01T11:31:13.083Z,101.66
2023-05-01T11:32:13.178Z,103.80
2023-05-01T11:33:13.259Z,99.63
2023-05-01T11:34:13.259Z,103.71
2023-05-01T11:35:13.290Z,103.92
2023-05-01T11:36:13.345Z,107.28
2023-05-01T11:37:13.440Z,109.59
2023-05-01T11:38:13.496Z,105.01
2023-05-01T11:39:13.468Z,106.91
2023-05-01T11:40:13.509Z,106.42
2023-05-01T11:41:13.706Z,105.92
2023-05-01T11:42:13.662Z,105.48
2023-05-01T11:43:13.628Z,103.29
2023-05-01T11:44:13.710Z,103.66
2023-05-01T11:45:13.718Z,105.04
2023-05-01T11:46:13.841Z,107.07
2023-05-01T11:47:13.789Z,104.17
2023-05-01T11:48:13.891Z,105.51
2023-05-01T11:49:13.846Z,104.06
2023-05-01T11:50:13.880Z,105.93
2023-05-01T11:51:13.928Z,102.26
2023-05-01T11:52:13.968Z,103.07
2023-05-01T11:53:13.965Z,102.55
2023-05-01T11:54:15.755Z,103.85
2023-05-01T11:55:14.057Z,101.06
2023-05-01T11:56:25.435Z,105.54
2023-05-01T11:57:15.197Z,105.71
2023-05-01T11:58:14.107Z,103.34
2023-05-01T11:59:14.181Z,101.62
2023-05-01T12:00:14.091Z,103.45
2023-05-01T12:01:14.071Z,102.18
2023-05-01T12:02:14.141Z,101.34
2023-05-01T12:03:14.536Z,97.93
2023-05-01T12:04:14.173Z,101.05
2023-05-01T12:05:14.088Z,101.95
2023-05-01T12:06:14.157Z,97.30
2023-05-01T12:07:14.052Z,97.97
2023-05-01T12:08:14.070Z,96.14
2023-05-01T12:09:14.114Z,97.17
2023-05-01T12:10:14.155Z,98.40
2023-05-01T12:11:14.183Z,97.19
2023-05-01T12:12:14.231Z,98.61
2023-05-01T12:13:14.228Z,97.17
2023-05-01T12:14:14.292Z,96.33
2023-05-01T12:15:14.291Z,94.86
2023-05-01T12:16:14.300Z,95.06
2023-05-01T12:17:14.434Z,94.17
2023-05-01T12:18:14.591Z,94.71
2023-05-01T12:19:14.583Z,92.64
2023-05-01T12:20:14.515Z,94.90
2023-05-01T12:21:14.551Z,91.55
2023-05-01T12:22:14.616Z,93.40
2023-05-01T12:23:14.691Z,95.91
2023-05-01T12:24:14.692Z,93.06
2023-05-01T12:25:14.756Z,92.62
2023-05-01T12:26:15.517Z,93.08
2023-05-01T12:27:14.857Z,91.48
2023-05-01T12:28:14.920Z,94.33
2023-05-01T12:29:14.941Z,90.99
2023-05-01T12:30:14.973Z,92.45
2023-05-01T12:31:15.071Z,90.00
2023-05-01T12:32:15.079Z,92.04
2023-05-01T12:33:15.189Z,90.33
2023-05-01T12:34:15.228Z,90.43
2023-05-01T12:35:15.266Z,89.61
2023-05-01T12:36:15.328Z,90.44
2023-05-01T12:37:15.370Z,86.85
2023-05-01T12:38:15.410Z,87.14
2023-05-01T12:39:15.441Z,86.76
2023-05-01T12:40:15.476Z,88.46
2023-05-01T12:41:15.502Z,83.68
2023-05-01T12:42:15.583Z,85.80
2023-05-01T12:43:15.568Z,88.09
2023-05-01T12:44:15.605Z,86.36
2023-05-01T12:45:15.646Z,83.98
2023-05-01T12:46:15.673Z,84.89
2023-05-01T12:47:15.682Z,85.62
2023-05-01T12:48:15.756Z,85.56
2023-05-01T12:49:15.742Z,84.46
2023-05-01T12:50:15.787Z,83.88
2023-05-01T12:51:15.850Z,84.91